Time;durP1;ratioP1;P1;durP2;ratioP2;P2;SDS_P1;SDS_P2;PMS_P1;PMS_P2;Temp;Humidity;BMP_temperature;BMP_pressure;BME280_temperature;BME280_humidity;BME280_pressure;Samples;Min_cycle;Max_cycle;Signal;HPM_P1;HPM_P2
2022/12/03 00:01:35;;;;;;;205.67;188.53;;;2.90;35.80;;;;;;5091751;28;20539;-69
2022/12/03 00:04:01;;;;;;;422.93;395.60;;;2.80;35.70;;;;;;5092074;28;20178;-69
2022/12/03 00:06:26;;;;;;;607.37;566.00;;;2.80;36.30;;;;;;5092171;28;20186;-69
2022/12/03 00:08:52;;;;;;;366.23;340.67;;;2.80;36.30;;;;;;5091778;28;20186;-69
2022/12/03 00:11:18;;;;;;;215.57;197.17;;;2.80;36.30;;;;;;5091900;28;20241;-69
2022/12/03 00:13:44;;;;;;;416.05;388.75;;;2.80;35.10;;;;;;5091800;28;20265;-69
2022/12/03 00:16:10;;;;;;;493.63;459.90;;;2.70;35.40;;;;;;5091762;28;20285;-69
2022/12/03 00:18:35;;;;;;;97.83;66.77;;;2.70;35.40;;;;;;5091644;28;20585;-69
2022/12/03 00:21:01;;;;;;;394.50;368.23;;;2.70;36.20;;;;;;5092065;28;20682;-69
2022/12/03 00:23:26;;;;;;;474.20;443.47;;;2.60;35.50;;;;;;5091784;28;20172;-70
2022/12/03 00:25:52;;;;;;;400.60;374.03;;;2.60;35.10;;;;;;5091848;28;20262;-68
2022/12/03 00:28:18;;;;;;;405.97;379.27;;;2.40;35.00;;;;;;5091664;28;20544;-69
2022/12/03 00:30:43;;;;;;;350.97;323.87;;;2.30;34.90;;;;;;5091465;28;20266;-70
2022/12/03 00:33:09;;;;;;;517.40;483.20;;;2.20;35.80;;;;;;5091317;28;20297;-68
2022/12/03 00:35:34;;;;;;;425.10;397.37;;;2.10;35.70;;;;;;5091784;28;20207;-70
2022/12/03 00:38:00;;;;;;;214.20;195.13;;;2.10;35.70;;;;;;5091908;28;20184;-69
2022/12/03 00:40:25;;;;;;;126.03;101.00;;;2.00;36.60;;;;;;5091512;28;20197;-70
2022/12/03 00:42:51;;;;;;;441.67;412.93;;;2.00;35.80;;;;;;5091370;28;20170;-69
2022/12/03 00:45:16;;;;;;;421.40;394.13;;;1.90;36.70;;;;;;5091620;28;20552;-70
2022/12/03 00:47:42;;;;;;;332.53;310.37;;;1.80;36.10;;;;;;5091721;28;20206;-69
2022/12/03 00:50:08;;;;;;;318.13;295.93;;;1.70;35.40;;;;;;5091376;28;20701;-71
2022/12/03 00:52:33;;;;;;;390.83;365.30;;;1.60;36.80;;;;;;5091278;28;20647;-70
2022/12/03 00:54:59;;;;;;;156.87;142.67;;;1.60;36.60;;;;;;5091761;28;20250;-70
2022/12/03 00:57:24;;;;;;;434.47;405.63;;;1.60;37.50;;;;;;5091642;28;20579;-69
2022/12/03 00:59:50;;;;;;;363.43;338.63;;;1.60;37.30;;;;;;5090065;28;20682;-70
2022/12/03 01:02:15;;;;;;;366.13;341.70;;;1.60;37.90;;;;;;5091263;28;20482;-70
2022/12/03 01:04:41;;;;;;;219.40;202.50;;;1.40;37.30;;;;;;5091551;28;20264;-70
2022/12/03 01:07:06;;;;;;;234.00;214.57;;;1.40;38.90;;;;;;5091587;28;20176;-70
2022/12/03 01:09:32;;;;;;;402.87;374.00;;;1.40;40.70;;;;;;5094532;28;20210;-70
2022/12/03 01:11:58;;;;;;;409.67;381.57;;;1.40;39.50;;;;;;5094895;28;20174;-70
2022/12/03 01:14:23;;;;;;;221.83;204.67;;;1.40;39.10;;;;;;5094977;28;20187;-70
2022/12/03 01:16:49;;;;;;;292.97;273.03;;;1.30;39.30;;;;;;5093860;28;20213;-69
2022/12/03 01:19:15;;;;;;;356.27;329.97;;;1.30;40.00;;;;;;5094673;28;20185;-69
2022/12/03 01:21:42;;;;;;;130.30;116.97;;;1.30;39.30;;;;;;5094805;28;20794;-70
2022/12/03 01:24:08;;;;;;;205.75;189.65;;;1.30;39.30;;;;;;5094878;28;20178;-70
2022/12/03 01:26:34;;;;;;;266.33;247.20;;;1.30;38.80;;;;;;5094762;28;20179;-70
2022/12/03 01:29:00;;;;;;;201.67;184.93;;;1.20;39.10;;;;;;5094688;28;20320;-70
2022/12/03 01:34:09;;;;;;;138.90;115.20;;;1.30;40.10;;;;;;5088261;28;20671;-70
2022/12/03 01:36:35;;;;;;;218.10;199.07;;;1.30;39.50;;;;;;5075896;28;20177;-70
2022/12/03 01:39:02;;;;;;;134.70;119.00;;;1.30;40.10;;;;;;5088101;28;20451;-70
2022/12/03 01:41:29;;;;;;;110.45;86.95;;;1.40;40.60;;;;;;5096247;28;20183;-70
2022/12/03 01:43:56;;;;;;;105.80;76.70;;;1.40;40.20;;;;;;5095552;28;20167;-70
2022/12/03 01:46:26;;;;;;;272.98;254.65;;;1.50;41.30;;;;;;5096238;28;20260;-70
2022/12/03 01:48:54;;;;;;;209.93;193.82;;;1.60;41.30;;;;;;5095954;28;20173;-70
2022/12/03 01:51:20;;;;;;;222.00;205.82;;;1.70;40.80;;;;;;5096222;28;20203;-70
2022/12/03 01:53:45;;;;;;;385.27;359.10;;;1.80;40.70;;;;;;5095168;28;20188;-70
2022/12/03 01:56:15;;;;;;;338.47;316.77;;;1.90;40.60;;;;;;5095642;28;20507;-70
2022/12/03 01:58:42;;;;;;;215.20;199.02;;;2.00;40.00;;;;;;5095517;28;20280;-70
2022/12/03 02:01:14;;;;;;;255.25;238.05;;;2.00;38.80;;;;;;5094090;28;20256;-70
2022/12/03 02:03:40;;;;;;;274.67;255.85;;;2.10;38.90;;;;;;5095383;28;20179;-69
2022/12/03 02:06:17;;;;;;;229.50;211.95;;;2.20;38.50;;;;;;5096064;28;20183;-70
2022/12/03 02:08:43;;;;;;;250.38;233.35;;;2.30;38.00;;;;;;5095463;28;20174;-69
2022/12/03 02:11:23;;;;;;;247.05;229.75;;;2.30;37.70;;;;;;5095223;28;20591;-70
2022/12/03 02:13:53;;;;;;;290.38;269.23;;;2.30;37.90;;;;;;5095203;28;20212;-70
2022/12/03 02:16:18;;;;;;;290.10;269.45;;;2.50;36.30;;;;;;5095484;28;20561;-70
2022/12/03 02:18:44;;;;;;;260.57;241.20;;;2.50;36.00;;;;;;5093589;28;20183;-71
2022/12/03 02:21:21;;;;;;;360.70;336.90;;;2.50;35.20;;;;;;5093473;28;20235;-71
2022/12/03 02:24:10;;;;;;;398.08;372.88;;;2.50;35.40;;;;;;5093955;28;20171;-71
2022/12/03 02:26:36;;;;;;;324.80;303.73;;;2.50;35.40;;;;;;5094042;28;20680;-71
2022/12/03 02:29:01;;;;;;;308.10;287.53;;;2.60;36.20;;;;;;5093580;28;20193;-71
2022/12/03 02:31:27;;;;;;;386.47;361.13;;;2.60;36.00;;;;;;5093344;28;20712;-71
2022/12/03 02:33:53;;;;;;;305.40;285.37;;;2.60;35.70;;;;;;5093425;28;20187;-70
2022/12/03 02:36:19;;;;;;;310.53;290.53;;;2.70;36.20;;;;;;5094681;28;20204;-71
2022/12/03 02:38:47;;;;;;;452.88;422.02;;;2.80;34.90;;;;;;5094178;28;20195;-70
2022/12/03 02:44:04;;;;;;;203.52;186.27;;;2.80;34.50;;;;;;5095813;28;20172;-71
2022/12/03 02:46:30;;;;;;;448.83;417.90;;;2.90;34.00;;;;;;5094813;28;20187;-70
2022/12/03 02:48:56;;;;;;;369.23;345.33;;;3.00;32.70;;;;;;5095255;28;20616;-70
2022/12/03 02:51:21;;;;;;;317.02;293.20;;;3.00;32.20;;;;;;5094880;28;20260;-70
2022/12/03 02:53:49;;;;;;;287.10;265.53;;;3.00;31.80;;;;;;5095122;28;20525;-69
2022/12/03 02:56:19;;;;;;;319.08;296.65;;;3.00;32.00;;;;;;5094698;28;20202;-70
2022/12/03 02:58:48;;;;;;;321.10;299.67;;;3.00;31.80;;;;;;5094117;28;20270;-70
2022/12/03 03:01:14;;;;;;;496.30;463.52;;;3.10;31.80;;;;;;5094745;28;20196;-69
2022/12/03 03:03:41;;;;;;;146.70;124.50;;;3.00;33.00;;;;;;5094624;28;20667;-70
2022/12/03 03:06:08;;;;;;;409.25;380.80;;;3.00;32.60;;;;;;5093874;28;20279;-70
2022/12/03 03:08:35;;;;;;;354.80;331.25;;;3.10;32.30;;;;;;5094590;28;20176;-71
2022/12/03 03:11:02;;;;;;;418.92;391.52;;;3.10;32.00;;;;;;5103659;22;20228;-68
2022/12/03 03:13:29;;;;;;;399.98;372.75;;;3.10;31.70;;;;;;5077515;28;20180;-68
2022/12/03 03:15:56;;;;;;;372.02;346.77;;;3.20;31.50;;;;;;5074324;28;20216;-68
2022/12/03 03:18:21;;;;;;;341.05;312.95;;;3.20;31.50;;;;;;5092054;28;20540;-68
2022/12/03 03:20:47;;;;;;;538.47;503.13;;;3.30;31.60;;;;;;5074167;28;20196;-68
2022/12/03 03:23:18;;;;;;;374.53;349.43;;;3.20;31.00;;;;;;5092513;28;20258;-68
2022/12/03 03:25:48;;;;;;;613.72;571.80;;;3.20;31.50;;;;;;5092300;28;20180;-69
2022/12/03 03:28:14;;;;;;;309.85;284.50;;;3.20;31.50;;;;;;5074993;28;20268;-68
2022/12/03 03:30:41;;;;;;;285.95;263.05;;;3.20;30.20;;;;;;5091868;28;20203;-68
2022/12/03 03:33:07;;;;;;;158.57;142.93;;;3.10;29.80;;;;;;5081028;28;20270;-68
2022/12/03 03:35:34;;;;;;;343.42;316.75;;;3.00;28.60;;;;;;5092208;28;20207;-68
2022/12/03 03:38:00;;;;;;;211.85;193.95;;;2.90;27.00;;;;;;5092321;28;20198;-68
2022/12/03 03:40:26;;;;;;;220.73;203.17;;;2.90;27.00;;;;;;5091544;28;20225;-68
2022/12/03 03:42:52;;;;;;;505.92;473.10;;;2.90;27.00;;;;;;5091911;28;20237;-68
2022/12/03 03:45:18;;;;;;;134.00;119.13;;;2.90;27.00;;;;;;5092258;28;20654;-68
2022/12/03 03:47:44;;;;;;;325.83;305.08;;;3.00;27.10;;;;;;5092140;28;20226;-68
2022/12/03 03:50:11;;;;;;;371.97;349.43;;;3.00;26.40;;;;;;5092098;28;20292;-68
2022/12/03 03:52:39;;;;;;;205.52;188.43;;;3.00;27.20;;;;;;5079915;28;20792;-68
2022/12/03 03:55:06;;;;;;;109.97;91.53;;;3.10;26.40;;;;;;5071658;28;20224;-69
2022/12/03 03:57:32;;;;;;;371.95;348.73;;;3.20;26.00;;;;;;5071684;28;20189;-69
2022/12/03 03:59:58;;;;;;;329.20;307.37;;;3.20;26.20;;;;;;5071937;28;20200;-68
2022/12/03 04:02:26;;;;;;;416.65;391.90;;;3.30;26.80;;;;;;5071635;28;20171;-68
2022/12/03 04:04:53;;;;;;;522.57;489.87;;;3.30;27.00;;;;;;5086448;28;20192;-68
2022/12/03 04:07:18;;;;;;;492.23;462.73;;;3.40;26.60;;;;;;5074648;28;20948;-69
2022/12/03 04:09:44;;;;;;;406.87;383.37;;;3.30;27.10;;;;;;5074242;28;20219;-69
2022/12/03 04:14:57;;;;;;;392.10;366.90;;;3.40;26.10;;;;;;5092155;28;21018;-69
2022/12/03 04:17:23;;;;;;;459.07;432.93;;;3.40;26.00;;;;;;5091973;28;20411;-69
2022/12/03 04:19:48;;;;;;;97.00;64.63;;;3.50;25.90;;;;;;5073661;28;20201;-68
2022/12/03 04:30:28;;;;;;;206.93;190.63;;;3.40;26.00;;;;;;5071725;28;20275;-68
2022/12/03 04:35:43;;;;;;;219.30;202.05;;;3.40;26.10;;;;;;5051469;28;20763;-68
2022/12/03 04:38:10;;;;;;;249.75;230.85;;;3.40;24.60;;;;;;5033423;28;20181;-68
2022/12/03 04:43:21;;;;;;;192.38;177.63;;;3.30;25.80;;;;;;5072979;28;20187;-68
2022/12/03 04:45:47;;;;;;;337.80;313.43;;;3.30;25.70;;;;;;5057361;28;20272;-69
2022/12/03 04:48:12;;;;;;;459.23;432.40;;;3.40;25.80;;;;;;5075129;28;20587;-69
2022/12/03 04:50:38;;;;;;;447.50;422.57;;;3.50;25.60;;;;;;5077471;28;20250;-69
2022/12/03 04:53:04;;;;;;;170.43;155.10;;;3.40;25.30;;;;;;5093759;28;20235;-68
2022/12/03 04:55:29;;;;;;;245.30;226.60;;;3.50;25.30;;;;;;5056802;28;20211;-69
2022/12/03 04:57:55;;;;;;;263.47;244.23;;;3.50;25.10;;;;;;5074733;28;20220;-69
2022/12/03 05:00:20;;;;;;;420.40;393.13;;;3.40;25.50;;;;;;5074661;28;20604;-68
2022/12/03 05:02:46;;;;;;;179.57;163.53;;;3.40;24.90;;;;;;5074543;28;20177;-68
2022/12/03 05:05:11;;;;;;;523.30;483.40;;;3.40;25.00;;;;;;5074694;28;20230;-68
2022/12/03 05:07:37;;;;;;;199.93;183.77;;;3.20;23.10;;;;;;5074716;28;20187;-68
2022/12/03 05:10:04;;;;;;;324.07;301.47;;;3.20;23.80;;;;;;5074446;28;20220;-69
2022/12/03 05:12:29;;;;;;;269.10;249.95;;;3.10;24.10;;;;;;5074246;28;20214;-68
2022/12/03 05:14:55;;;;;;;120.70;106.80;;;3.10;23.80;;;;;;5079543;28;20240;-69
2022/12/03 05:17:20;;;;;;;465.10;436.60;;;3.10;25.00;;;;;;5094821;28;20180;-68
2022/12/03 05:22:30;;;;;;;346.77;322.88;;;3.00;24.60;;;;;;5074243;28;20204;-68
2022/12/03 05:24:55;;;;;;;202.60;186.10;;;3.10;25.10;;;;;;5074196;28;20212;-68
2022/12/03 05:27:21;;;;;;;201.90;185.37;;;3.10;25.40;;;;;;5074194;28;20691;-68
2022/12/03 05:29:47;;;;;;;194.90;178.57;;;3.10;24.70;;;;;;5079507;28;20200;-69
2022/12/03 05:32:13;;;;;;;299.30;278.87;;;3.10;25.10;;;;;;5094087;28;20535;-68
2022/12/03 05:34:38;;;;;;;244.43;225.93;;;3.10;24.60;;;;;;5093999;28;20934;-68
2022/12/03 05:37:04;;;;;;;88.60;57.87;;;3.10;25.70;;;;;;5076244;28;20179;-69
2022/12/03 05:39:30;;;;;;;112.27;100.10;;;3.20;25.80;;;;;;5094170;28;20172;-68
2022/12/03 05:44:39;;;;;;;182.73;167.03;;;3.10;24.80;;;;;;5093944;28;20197;-68
2022/12/03 05:47:05;;;;;;;285.10;264.77;;;3.10;25.00;;;;;;5094219;28;20419;-69
2022/12/03 05:49:30;;;;;;;304.70;283.03;;;3.20;24.80;;;;;;5094070;28;20261;-68
2022/12/03 05:51:56;;;;;;;221.70;203.67;;;3.10;23.80;;;;;;5093805;28;20183;-69
2022/12/03 05:54:22;;;;;;;204.70;188.23;;;3.00;24.70;;;;;;5093530;28;20320;-69
2022/12/03 05:56:47;;;;;;;108.97;92.83;;;3.00;25.30;;;;;;5094336;28;20537;-69
2022/12/03 05:59:13;;;;;;;329.97;306.13;;;3.00;25.40;;;;;;5082779;28;20251;-69
2022/12/03 06:01:38;;;;;;;307.33;285.80;;;3.10;25.60;;;;;;5055433;28;20601;-69
2022/12/03 06:04:04;;;;;;;134.43;120.57;;;3.10;25.30;;;;;;5055875;28;20223;-69
2022/12/03 06:06:29;;;;;;;267.87;248.47;;;3.10;24.70;;;;;;5073650;28;20269;-69
2022/12/03 06:08:55;;;;;;;182.87;166.37;;;3.20;25.30;;;;;;5073997;28;20177;-69
2022/12/03 06:11:20;;;;;;;234.70;217.63;;;3.20;25.00;;;;;;5073830;28;20228;-69
2022/12/03 06:13:46;;;;;;;384.50;362.00;;;3.30;24.90;;;;;;5073388;28;20593;-69
2022/12/03 06:16:11;;;;;;;129.13;109.13;;;3.30;24.60;;;;;;5073440;28;20224;-68
2022/12/03 06:18:37;;;;;;;218.17;199.93;;;3.40;24.40;;;;;;5075026;28;20232;-68
2022/12/03 06:21:03;;;;;;;224.43;206.50;;;3.30;23.90;;;;;;5093506;28;20313;-69
2022/12/03 06:23:28;;;;;;;367.33;344.80;;;3.30;24.60;;;;;;5092999;28;20199;-68
2022/12/03 06:25:54;;;;;;;353.50;332.67;;;3.30;25.30;;;;;;5093586;28;20206;-69
2022/12/03 06:28:19;;;;;;;253.10;234.90;;;3.40;25.40;;;;;;5075390;28;20225;-69
2022/12/03 06:30:45;;;;;;;188.37;171.50;;;3.40;25.80;;;;;;5073045;28;20236;-69
2022/12/03 06:33:10;;;;;;;109.90;92.30;;;3.50;24.60;;;;;;5080396;28;20226;-69
2022/12/03 06:35:36;;;;;;;298.60;278.47;;;3.60;24.40;;;;;;5094100;28;20215;-72
2022/12/03 06:38:01;;;;;;;226.77;207.93;;;3.50;23.30;;;;;;5075181;28;20243;-71
2022/12/03 06:40:27;;;;;;;584.47;547.57;;;3.50;24.60;;;;;;5092889;28;20201;-69
2022/12/03 06:42:52;;;;;;;544.73;512.47;;;3.40;25.40;;;;;;5074701;28;20230;-69
2022/12/03 06:45:18;;;;;;;409.43;379.27;;;3.40;25.20;;;;;;5093118;28;20546;-68
2022/12/03 06:47:44;;;;;;;120.10;85.70;;;3.40;25.60;;;;;;5093398;28;20170;-68
2022/12/03 06:50:09;;;;;;;297.97;277.67;;;3.40;25.60;;;;;;5092397;28;20213;-68
2022/12/03 06:52:35;;;;;;;128.73;114.73;;;3.40;25.80;;;;;;5079997;28;20193;-68
2022/12/03 06:55:00;;;;;;;173.33;157.03;;;3.30;24.80;;;;;;5072446;28;20212;-69
2022/12/03 06:57:26;;;;;;;297.20;274.83;;;3.30;25.10;;;;;;5072736;28;20168;-68
2022/12/03 06:59:52;;;;;;;183.67;166.97;;;3.30;24.70;;;;;;5054267;28;20196;-69
2022/12/03 07:02:18;;;;;;;242.83;223.23;;;3.20;25.10;;;;;;5072209;28;20265;-68
2022/12/03 07:04:43;;;;;;;247.20;227.17;;;3.20;25.30;;;;;;5072121;28;20255;-69
2022/12/03 07:07:09;;;;;;;328.77;305.60;;;3.20;25.40;;;;;;5071702;28;20401;-68
2022/12/03 07:09:34;;;;;;;318.07;294.97;;;3.20;26.00;;;;;;5079248;28;20689;-69
2022/12/03 07:12:00;;;;;;;162.17;146.30;;;3.20;25.50;;;;;;5092170;28;20550;-70
2022/12/03 07:14:25;;;;;;;97.63;57.67;;;3.30;25.90;;;;;;5064764;28;20174;-68
2022/12/03 07:16:51;;;;;;;231.97;212.43;;;3.40;25.50;;;;;;5071975;28;20181;-70
2022/12/03 07:19:17;;;;;;;337.50;314.40;;;3.40;25.10;;;;;;5072023;28;20214;-69
2022/12/03 07:21:42;;;;;;;286.23;264.90;;;3.50;25.10;;;;;;5053698;28;20215;-69
2022/12/03 07:24:08;;;;;;;392.30;366.43;;;3.50;24.80;;;;;;5072156;28;20548;-69
2022/12/03 07:26:34;;;;;;;290.77;264.10;;;3.60;24.80;;;;;;5071909;28;20270;-69
2022/12/03 07:28:59;;;;;;;284.80;256.27;;;3.60;25.20;;;;;;5072056;28;20877;-69
2022/12/03 07:31:25;;;;;;;227.70;206.07;;;3.60;25.10;;;;;;5072032;28;20223;-70
2022/12/03 07:33:51;;;;;;;233.60;214.07;;;3.70;25.00;;;;;;5066487;28;20680;-69
2022/12/03 07:36:16;;;;;;;300.17;277.63;;;3.70;24.00;;;;;;5073861;28;20662;-70
2022/12/03 07:38:42;;;;;;;538.10;503.13;;;3.80;24.10;;;;;;5092028;28;20185;-69
2022/12/03 07:41:08;;;;;;;395.50;371.97;;;3.80;23.50;;;;;;5091883;28;20228;-70
2022/12/03 07:43:33;;;;;;;336.67;313.00;;;3.80;24.30;;;;;;5091839;28;20165;-70
2022/12/03 07:45:59;;;;;;;183.30;163.07;;;4.00;24.10;;;;;;5091977;28;20502;-70
2022/12/03 07:48:24;;;;;;;339.53;305.57;;;4.00;23.90;;;;;;5073527;28;20195;-69
2022/12/03 07:50:50;;;;;;;446.87;414.47;;;4.00;23.70;;;;;;5069213;28;20259;-69
2022/12/03 07:53:16;;;;;;;288.30;265.20;;;4.10;23.70;;;;;;5053708;28;20663;-69
2022/12/03 07:55:41;;;;;;;263.03;226.37;;;4.10;23.20;;;;;;5071991;28;20941;-68
2022/12/03 07:58:08;;;;;;;326.30;300.47;;;4.00;24.20;;;;;;5071858;28;20181;-69
2022/12/03 08:00:33;;;;;;;264.57;243.93;;;4.10;23.70;;;;;;5071653;28;20206;-68
2022/12/03 08:02:59;;;;;;;550.83;514.40;;;4.10;23.20;;;;;;5071431;28;20473;-69
2022/12/03 08:05:25;;;;;;;351.27;326.80;;;4.10;23.30;;;;;;5071586;28;20483;-68
2022/12/03 08:07:51;;;;;;;550.23;262.07;;;4.10;23.30;;;;;;5071660;28;20209;-68
2022/12/03 08:10:17;;;;;;;324.33;289.53;;;4.00;23.00;;;;;;5071465;28;20491;-68
2022/12/03 08:12:43;;;;;;;268.50;248.30;;;4.00;22.90;;;;;;5074291;28;20226;-68
2022/12/03 08:15:12;;;;;;;362.23;338.07;;;4.00;23.10;;;;;;5086491;28;20207;-68
2022/12/03 08:17:41;;;;;;;320.73;297.73;;;3.90;23.60;;;;;;5073684;28;20186;-68
2022/12/03 08:20:36;;;;;;;302.87;277.33;;;3.90;23.60;;;;;;5057378;28;20446;-68
2022/12/03 08:23:05;;;;;;;262.93;240.10;;;3.80;23.50;;;;;;5059495;28;20458;-69
2022/12/03 08:25:31;;;;;;;307.77;284.40;;;3.80;23.50;;;;;;5095079;28;20448;-69
2022/12/03 08:28:14;;;;;;;211.37;163.83;;;3.70;23.40;;;;;;5080765;28;20423;-68
2022/12/03 08:30:45;;;;;;;151.02;135.50;;;3.70;23.50;;;;;;5086583;28;20454;-68
2022/12/03 08:33:32;;;;;;;271.95;249.55;;;3.70;23.50;;;;;;5077026;28;20259;-68
2022/12/03 08:35:58;;;;;;;106.17;58.37;;;3.70;24.20;;;;;;5095274;28;20234;-68
2022/12/03 08:38:23;;;;;;;299.90;277.83;;;3.70;23.50;;;;;;5095396;28;20414;-69
2022/12/03 08:40:51;;;;;;;477.40;446.47;;;3.70;23.70;;;;;;5082534;28;20286;-68
2022/12/03 08:43:24;;;;;;;229.23;211.00;;;3.60;23.40;;;;;;5056724;28;21004;-69
2022/12/03 08:45:52;;;;;;;292.73;269.43;;;3.60;24.10;;;;;;5074910;28;20844;-69
2022/12/03 08:48:37;;;;;;;314.25;289.27;;;3.70;24.00;;;;;;5075035;28;20421;-70
2022/12/03 08:51:24;;;;;;;270.80;251.47;;;3.60;23.00;;;;;;5088819;28;20232;-68
2022/12/03 08:53:58;;;;;;;232.88;212.98;;;3.60;23.40;;;;;;5094832;28;20911;-69
2022/12/03 08:56:27;;;;;;;239.70;221.57;;;3.60;23.00;;;;;;5095608;28;20207;-69
2022/12/03 08:58:58;;;;;;;330.33;309.73;;;3.60;22.00;;;;;;5094161;28;20479;-70
2022/12/03 09:01:27;;;;;;;254.53;235.67;;;3.60;22.60;;;;;;5095816;28;20453;-69
2022/12/03 09:03:54;;;;;;;448.87;421.43;;;3.80;23.00;;;;;;5095447;28;20423;-69
2022/12/03 09:06:21;;;;;;;382.23;356.77;;;3.80;21.80;;;;;;5076862;28;20434;-69
2022/12/03 09:08:47;;;;;;;309.20;288.37;;;4.00;20.80;;;;;;5082688;28;20785;-69
2022/12/03 09:11:13;;;;;;;170.90;154.77;;;4.00;21.60;;;;;;5095460;22;20579;-70
2022/12/03 09:13:39;;;;;;;240.60;219.43;;;4.20;21.60;;;;;;5116121;28;20445;-71
2022/12/03 09:16:05;;;;;;;221.30;203.67;;;4.30;20.40;;;;;;5116152;28;20521;-70
2022/12/03 09:18:31;;;;;;;244.13;225.90;;;4.60;20.50;;;;;;5115272;28;20427;-69
2022/12/03 09:20:57;;;;;;;244.77;225.97;;;4.70;18.90;;;;;;5104222;28;20269;-70
2022/12/03 09:23:22;;;;;;;168.60;154.37;;;4.80;18.50;;;;;;5094378;28;20410;-70
2022/12/03 09:25:48;;;;;;;326.20;304.93;;;4.80;19.70;;;;;;5094563;28;20578;-70
2022/12/03 09:28:14;;;;;;;293.37;272.97;;;4.80;18.70;;;;;;5093663;28;20185;-69
2022/12/03 09:30:39;;;;;;;95.77;72.13;;;4.70;18.30;;;;;;5094561;28;20660;-69
2022/12/03 09:33:05;;;;;;;245.17;227.37;;;4.70;19.40;;;;;;5076213;28;20180;-71
2022/12/03 09:35:30;;;;;;;201.83;185.93;;;4.70;18.90;;;;;;5094426;28;20208;-71
2022/12/03 09:37:56;;;;;;;134.43;120.93;;;4.70;19.40;;;;;;5093797;28;20238;-71
2022/12/03 09:40:22;;;;;;;330.07;307.73;;;4.70;18.90;;;;;;5094225;28;20722;-70
2022/12/03 09:42:49;;;;;;;189.93;174.47;;;4.60;19.90;;;;;;5094266;28;20680;-71
2022/12/03 09:45:15;;;;;;;294.07;273.07;;;4.60;19.10;;;;;;5094864;28;20411;-71
2022/12/03 09:47:48;;;;;;;196.97;181.13;;;4.50;19.80;;;;;;5094260;28;20494;-71
2022/12/03 09:50:19;;;;;;;316.57;295.40;;;4.50;19.80;;;;;;5075975;28;20439;-71
2022/12/03 09:52:48;;;;;;;334.73;312.57;;;4.30;19.70;;;;;;5094197;28;20479;-71
2022/12/03 09:55:19;;;;;;;315.63;295.50;;;4.40;19.80;;;;;;5093950;28;20450;-71
2022/12/03 09:57:45;;;;;;;329.77;307.93;;;4.40;19.80;;;;;;5094008;28;20503;-71
2022/12/03 10:00:22;;;;;;;331.63;311.10;;;4.50;20.40;;;;;;5093946;28;20463;-71
2022/12/03 10:02:50;;;;;;;134.47;121.77;;;4.60;19.90;;;;;;5093709;28;20292;-71
2022/12/03 10:05:18;;;;;;;254.73;237.40;;;4.50;19.80;;;;;;5093997;28;20846;-71
2022/12/03 10:07:44;;;;;;;236.13;218.63;;;;;;;;;;5093865;28;20415;-70
2022/12/03 10:10:15;;;;;;;169.83;154.80;;;;;;;;;;5094004;28;20461;-70
2022/12/03 10:12:41;;;;;;;97.90;80.63;;;;;;;;;;5093565;28;20409;-70
2022/12/03 10:15:09;;;;;;;255.30;236.93;;;;;;;;;;5093677;28;20446;-69
2022/12/03 10:17:35;;;;;;;148.57;135.83;;;;;;;;;;5093627;28;20415;-69
2022/12/03 10:20:01;;;;;;;203.47;186.93;;;;;;;;;;5087027;28;20452;-68
2022/12/03 10:22:27;;;;;;;376.97;352.57;;;;;;;;;;5089767;28;20898;-69
2022/12/03 10:25:13;;;;;;;304.63;284.17;;;;;;;;;;5089064;28;20517;-69
2022/12/03 10:27:39;;;;;;;198.10;182.23;;;;;;;;;;5089984;28;20555;-70
2022/12/03 10:30:19;;;;;;;206.10;189.80;;;;;;;;;;5070795;28;20457;-70
2022/12/03 10:32:46;;;;;;;321.20;300.57;;;;;;;;;;5063276;28;21025;-70
2022/12/03 10:35:16;;;;;;;169.80;154.50;;;;;;;;;;5084833;28;20512;-70
2022/12/03 10:37:57;;;;;;;183.30;168.07;;;;;;;;;;5079011;28;20512;-70
2022/12/03 10:40:25;;;;;;;99.53;71.73;;;;;;;;;;5060898;28;20809;-70
2022/12/03 10:42:51;;;;;;;312.40;292.13;;;;;;;;;;5072656;28;20439;-70
2022/12/03 10:45:21;;;;;;;197.67;181.33;;;;;;;;;;5072795;28;20452;-68
2022/12/03 10:48:06;;;;;;;456.50;423.57;;;;;;;;;;5072743;28;20431;-68
2022/12/03 10:50:34;;;;;;;358.83;335.53;;;;;;;;;;5072481;28;20441;-69
2022/12/03 10:53:00;;;;;;;387.37;361.93;;;;;;;;;;5072608;28;20949;-69
2022/12/03 10:55:26;;;;;;;146.93;133.10;;;;;;;;;;5072463;28;20458;-69
2022/12/03 10:57:52;;;;;;;355.63;335.33;;;;;;;;;;5072556;28;20417;-69
2022/12/03 11:00:19;;;;;;;173.17;158.07;;;;;;;;;;5072315;28;20435;-69
2022/12/03 11:02:45;;;;;;;142.93;130.13;;;;;;;;;;5072256;28;20404;-68
2022/12/03 11:05:19;;;;;;;257.57;239.27;;;;;;;;;;5072278;28;20415;-69
2022/12/03 11:07:46;;;;;;;330.47;308.73;;;;;;;;;;5072411;28;20499;-69
2022/12/03 11:10:13;;;;;;;272.43;253.23;;;;;;;;;;5072166;28;20446;-68
2022/12/03 11:13:17;;;;;;;355.63;332.67;;;;;;;;;;5120552;27;20627;-69
2022/12/03 11:15:44;;;;;;;271.83;253.33;;;;;;;;;;5089278;28;20417;-69
2022/12/03 11:18:10;;;;;;;454.63;426.90;;;;;;;;;;5078809;28;20794;-70
2022/12/03 11:20:45;;;;;;;353.57;330.00;;;;;;;;;;5071467;28;20466;-69
2022/12/03 11:23:11;;;;;;;341.67;320.90;;;;;;;;;;5099772;28;20812;-70
2022/12/03 11:25:49;;;;;;;236.70;219.53;;;;;;;;;;5087632;28;20435;-71
2022/12/03 11:28:18;;;;;;;158.80;144.50;;;;;;;;;;5088805;28;20426;-69
2022/12/03 11:30:57;;;;;;;196.60;180.67;;;;;;;;;;5088628;28;20466;-69
2022/12/03 11:33:22;;;;;;;242.97;226.00;;;;;;;;;;5088876;28;20425;-70
2022/12/03 11:36:04;;;;;;;277.37;258.03;;;;;;;;;;5088922;28;20408;-69
2022/12/03 11:38:36;;;;;;;301.53;282.43;;;;;;;;;;5088894;28;20409;-69
2022/12/03 11:41:11;;;;;;;331.77;312.27;;;;;;;;;;5088827;28;20465;-70
2022/12/03 11:43:54;;;;;;;151.70;137.53;;;;;;;;;;5088889;28;20955;-69
2022/12/03 11:46:22;;;;;;;133.33;121.03;;;;;;;;;;5087985;28;20509;-70
2022/12/03 11:48:51;;;;;;;133.10;120.30;;;4.40;50.50;;;;;;5088746;28;20527;-72
2022/12/03 11:51:19;;;;;;;372.70;349.23;;;4.50;29.70;;;;;;5088428;28;20470;-71
2022/12/03 11:53:45;;;;;;;234.17;216.87;;;4.60;29.50;;;;;;5088509;28;20472;-69
2022/12/03 11:56:22;;;;;;;268.20;249.07;;;4.60;29.30;;;;;;5088598;28;20410;-69
2022/12/03 11:58:55;;;;;;;388.47;364.47;;;4.60;29.80;;;;;;5115865;28;20478;-69
2022/12/03 12:01:38;;;;;;;123.73;111.23;;;4.70;29.50;;;;;;5128795;28;20452;-69
2022/12/03 12:04:04;;;;;;;253.23;234.90;;;4.60;29.10;;;;;;5129392;28;20448;-69
2022/12/03 12:06:42;;;;;;;245.07;226.57;;;4.60;29.00;;;;;;5129362;27;20445;-69
2022/12/03 12:09:09;;;;;;;253.07;235.63;;;4.50;30.00;;;;;;5120337;28;20475;-69
2022/12/03 12:11:40;;;;;;;202.63;186.90;;;4.40;30.40;;;;;;5107016;28;20840;-69
2022/12/03 12:14:08;;;;;;;271.97;252.80;;;4.40;30.90;;;;;;5108564;28;20455;-69
2022/12/03 12:16:38;;;;;;;400.43;375.33;;;4.50;30.80;;;;;;5107268;28;20419;-69
2022/12/03 12:19:40;;;;;;;191.80;177.17;;;4.50;30.60;;;;;;5114253;28;20851;-69
2022/12/03 12:22:18;;;;;;;168.00;153.83;;;4.50;31.00;;;;;;5092652;28;20433;-69
2022/12/03 12:24:47;;;;;;;221.70;205.90;;;4.50;31.40;;;;;;5094817;28;20449;-69
2022/12/03 12:27:33;;;;;;;197.77;182.33;;;4.50;32.50;;;;;;5094792;28;20841;-69
2022/12/03 12:30:01;;;;;;;93.70;72.00;;;4.50;32.60;;;;;;5107874;28;20450;-69
2022/12/03 12:32:31;;;;;;;299.23;278.00;;;4.60;33.20;;;;;;5114718;28;20742;-69
2022/12/03 12:35:24;;;;;;;420.17;393.30;;;4.70;33.30;;;;;;5114672;27;20861;-70
2022/12/03 12:37:57;;;;;;;253.67;235.03;;;4.80;35.60;;;;;;5112812;27;20949;-69
2022/12/03 12:40:25;;;;;;;201.43;186.87;;;4.80;34.00;;;;;;5097875;28;20446;-69
2022/12/03 12:42:57;;;;;;;380.53;358.27;;;4.80;35.80;;;;;;5094230;28;20777;-70
2022/12/03 12:45:24;;;;;;;102.40;89.73;;;;;;;;;;5094754;28;20816;-70
2022/12/03 12:48:02;;;;;;;336.90;313.80;;;;;;;;;;5094641;28;20468;-70
2022/12/03 12:50:29;;;;;;;290.20;271.37;;;;;;;;;;5110810;28;20934;-70
2022/12/03 12:53:07;;;;;;;390.53;368.03;;;4.50;48.70;;;;;;5114095;28;20454;-70
2022/12/03 12:55:33;;;;;;;217.03;200.70;;;;;;;;;;5113635;28;20410;-70
2022/12/03 12:58:05;;;;;;;244.43;225.90;;;;;;;;;;5114699;28;20780;-71
2022/12/03 13:00:31;;;;;;;248.90;231.50;;;;;;;;;;5097236;28;20486;-70
2022/12/03 13:02:59;;;;;;;347.57;324.50;;;;;;;;;;5105875;28;20473;-70